createdAt,value
2022-08-23T00:00:22.611Z,18.56
2022-08-23T00:04:35.049Z,17.87
2022-08-23T00:08:38.232Z,17.78
2022-08-23T00:12:47.176Z,17.70
2022-08-23T00:16:48.781Z,17.70
2022-08-23T00:20:50.896Z,17.89
2022-08-23T00:24:52.332Z,18.05
2022-08-23T00:28:53.856Z,18.24
2022-08-23T00:32:57.958Z,18.49
2022-08-23T00:36:59.814Z,18.30
2022-08-23T00:41:02.997Z,18.18
2022-08-23T00:45:23.914Z,18.30
2022-08-23T00:49:28.267Z,18.01
2022-08-23T00:53:33.957Z,17.96
2022-08-23T00:57:37.312Z,17.95
2022-08-23T01:01:38.864Z,18.00
2022-08-23T01:05:52.617Z,17.80
2022-08-23T01:09:59.229Z,17.83
2022-08-23T01:14:13.254Z,18.18
2022-08-23T01:18:17.816Z,18.38
2022-08-23T01:22:34.308Z,18.26
2022-08-23T01:26:36.236Z,17.98
2022-08-23T01:30:39.304Z,17.95
2022-08-23T01:34:45.862Z,17.89
2022-08-23T01:38:53.148Z,17.97
2022-08-23T01:42:54.977Z,17.84
2022-08-23T01:46:57.971Z,17.83
2022-08-23T01:50:59.559Z,17.93
2022-08-23T01:55:01.819Z,17.91
2022-08-23T01:59:03.882Z,18.05
2022-08-23T02:03:07.416Z,18.13
2022-08-23T02:07:08.880Z,18.18
2022-08-23T02:11:16.178Z,18.07
2022-08-23T02:15:17.821Z,17.97
2022-08-23T02:19:20.539Z,18.16
2022-08-23T02:23:22.837Z,18.23
2022-08-23T02:27:24.350Z,17.96
2022-08-23T02:31:26.448Z,17.86
2022-08-23T02:35:28.504Z,17.81
2022-08-23T02:39:30.289Z,17.78
2022-08-23T02:43:31.856Z,17.91
2022-08-23T02:47:33.358Z,18.02
2022-08-23T02:51:35.145Z,17.73
2022-08-23T02:55:36.605Z,17.85
2022-08-23T02:59:38.482Z,18.10
2022-08-23T03:03:40.140Z,18.09
2022-08-23T03:07:42.010Z,17.79
2022-08-23T03:11:46.056Z,17.93
2022-08-23T03:15:47.553Z,17.78
2022-08-23T03:19:49.216Z,18.04
2022-08-23T03:23:50.701Z,17.84
2022-08-23T03:27:52.328Z,17.67
2022-08-23T03:31:53.847Z,17.84
2022-08-23T03:36:00.399Z,18.07
2022-08-23T03:40:01.973Z,17.90
2022-08-23T03:44:04.046Z,18.00
2022-08-23T03:48:05.567Z,18.00
2022-08-23T03:52:07.279Z,18.10
2022-08-23T03:56:08.736Z,17.82
2022-08-23T04:00:14.300Z,17.73
2022-08-23T04:04:22.579Z,17.72
2022-08-23T04:08:33.295Z,17.91
2022-08-23T04:12:35.921Z,17.82
2022-08-23T04:16:37.802Z,17.84
2022-08-23T04:20:39.320Z,17.65
2022-08-23T04:24:42.025Z,17.67
2022-08-23T04:28:43.516Z,17.70
2022-08-23T04:32:44.964Z,17.73
2022-08-23T04:36:51.807Z,17.96
2022-08-23T04:41:23.563Z,18.11
2022-08-23T04:45:27.067Z,18.04
2022-08-23T04:49:28.499Z,17.85
2022-08-23T04:53:30.468Z,17.76
2022-08-23T04:57:32.467Z,17.91
2022-08-23T05:01:34.816Z,17.97
2022-08-23T05:05:36.565Z,17.95
2022-08-23T05:09:38.058Z,17.98
2022-08-23T05:13:40.014Z,18.15
2022-08-23T05:17:41.487Z,17.95
2022-08-23T05:21:42.913Z,17.95
2022-08-23T05:25:52.509Z,17.95
2022-08-23T05:29:54.911Z,18.04
2022-08-23T05:33:56.460Z,18.18
2022-08-23T05:38:01.325Z,18.22
2022-08-23T05:42:03.263Z,18.23
2022-08-23T05:46:14.302Z,18.32
2022-08-23T05:50:16.232Z,18.43
2022-08-23T05:54:17.697Z,18.45
2022-08-23T05:58:19.281Z,18.50
2022-08-23T06:02:20.739Z,18.40
2022-08-23T06:06:22.275Z,18.75
2022-08-23T06:10:41.594Z,18.82
2022-08-23T06:14:43.795Z,18.79
2022-08-23T06:18:46.986Z,18.93
2022-08-23T06:22:48.444Z,18.90
2022-08-23T06:26:50.776Z,18.83
2022-08-23T06:30:56.967Z,19.13
2022-08-23T06:35:33.221Z,19.01
2022-08-23T06:39:22.102Z,19.32
2022-08-23T06:43:23.542Z,19.41
2022-08-23T06:47:24.973Z,19.44
2022-08-23T06:51:41.311Z,19.39
2022-08-23T06:55:42.797Z,19.58
2022-08-23T06:59:44.222Z,19.53
2022-08-23T07:03:46.198Z,19.54
2022-08-23T07:07:47.762Z,19.79
2022-08-23T07:11:49.278Z,19.68
2022-08-23T07:15:50.925Z,19.90
2022-08-23T07:19:52.463Z,19.85
2022-08-23T07:23:53.992Z,19.93
2022-08-23T07:27:55.532Z,19.97
2022-08-23T07:31:57.568Z,20.34
2022-08-23T07:35:59.393Z,20.24
2022-08-23T07:40:00.931Z,20.36
2022-08-23T07:44:04.473Z,20.20
2022-08-23T07:48:07.110Z,20.52
2022-08-23T07:52:08.632Z,20.60
2022-08-23T07:56:12.025Z,20.71
2022-08-23T08:00:14.870Z,20.85
2022-08-23T08:04:16.314Z,20.90
2022-08-23T08:08:18.090Z,20.91
2022-08-23T08:12:19.724Z,21.00
2022-08-23T08:16:34.583Z,20.87
2022-08-23T08:20:36.879Z,21.09
2022-08-23T08:24:38.994Z,21.30
2022-08-23T08:28:40.798Z,21.33
2022-08-23T08:32:47.338Z,21.14
2022-08-23T08:36:53.718Z,21.69
2022-08-23T08:41:18.586Z,21.70
2022-08-23T08:45:26.415Z,21.87
2022-08-23T08:49:42.584Z,21.89
2022-08-23T08:53:47.982Z,21.80
2022-08-23T08:57:50.233Z,21.90
2022-08-23T09:01:51.866Z,22.06
2022-08-23T09:06:33.279Z,22.12
2022-08-23T09:10:50.609Z,22.07
2022-08-23T09:15:14.296Z,22.07
2022-08-23T09:19:16.025Z,22.13
2022-08-23T09:23:23.191Z,22.67
2022-08-23T09:27:24.645Z,22.52
2022-08-23T09:31:41.868Z,22.49
2022-08-23T09:35:43.747Z,22.76
2022-08-23T09:39:49.646Z,22.45
2022-08-23T09:43:52.347Z,23.16
2022-08-23T09:47:53.902Z,22.65
2022-08-23T09:51:59.346Z,22.80
2022-08-23T09:56:13.574Z,22.99
2022-08-23T10:00:32.373Z,23.42
2022-08-23T10:04:36.885Z,23.40
2022-08-23T10:08:51.845Z,23.45
2022-08-23T10:12:56.566Z,23.56
2022-08-23T10:17:37.437Z,23.38
2022-08-23T10:22:21.526Z,23.65
2022-08-23T10:26:31.050Z,23.71
2022-08-23T10:30:54.589Z,23.94
2022-08-23T10:35:15.021Z,23.90
2022-08-23T10:39:24.703Z,24.13
2022-08-23T10:43:53.935Z,24.65
2022-08-23T10:48:13.636Z,25.03
2022-08-23T10:52:40.720Z,24.70
2022-08-23T10:56:50.894Z,24.96
2022-08-23T11:00:55.585Z,24.75
2022-08-23T11:05:06.631Z,24.43
2022-08-23T11:09:17.238Z,24.84
2022-08-23T11:13:23.935Z,24.42
2022-08-23T11:17:30.275Z,24.15
2022-08-23T11:21:38.474Z,24.29
2022-08-23T11:25:42.761Z,24.49
2022-08-23T11:29:44.240Z,24.91
2022-08-23T11:34:09.259Z,25.37
2022-08-23T11:38:12.313Z,25.66
2022-08-23T11:42:19.210Z,25.97
2022-08-23T11:46:24.113Z,25.43
2022-08-23T11:50:43.856Z,25.78
2022-08-23T11:55:14.501Z,25.27
2022-08-23T11:59:35.015Z,25.27
2022-08-23T12:04:08.662Z,25.58
2022-08-23T12:08:13.866Z,26.21
2022-08-23T12:12:28.154Z,25.60
2022-08-23T12:16:34.089Z,25.78
2022-08-23T12:20:39.135Z,26.91
2022-08-23T12:24:46.978Z,26.22
2022-08-23T12:28:57.517Z,25.94
2022-08-23T12:33:09.301Z,26.47
2022-08-23T12:37:22.799Z,26.85
2022-08-23T12:41:31.210Z,26.66
2022-08-23T12:45:39.576Z,26.82
2022-08-23T12:49:41.596Z,25.87
2022-08-23T12:53:45.745Z,26.02
2022-08-23T12:57:55.123Z,26.39
2022-08-23T13:01:57.100Z,26.16
2022-08-23T13:06:02.305Z,26.90
2022-08-23T13:10:05.102Z,27.77
2022-08-23T13:14:50.015Z,28.42
2022-08-23T13:18:51.466Z,28.57
2022-08-23T13:23:11.906Z,28.53
2022-08-23T13:27:18.550Z,29.19
2022-08-23T13:31:20.066Z,28.33
2022-08-23T13:35:22.324Z,29.08
2022-08-23T13:39:23.816Z,28.77
2022-08-23T13:43:28.362Z,27.24
2022-08-23T13:47:30.298Z,26.70
2022-08-23T13:51:39.909Z,26.22
2022-08-23T13:55:43.394Z,25.95
2022-08-23T13:59:54.165Z,25.32
2022-08-23T14:03:56.119Z,25.40
2022-08-23T14:07:57.601Z,26.24
2022-08-23T14:12:03.089Z,26.62
2022-08-23T14:20:34.095Z,27.03
2022-08-23T14:24:45.702Z,25.66
2022-08-23T14:28:47.743Z,26.17
2022-08-23T14:32:55.734Z,26.39
2022-08-23T14:41:22.834Z,26.16
2022-08-23T14:45:24.433Z,26.04
2022-08-23T14:49:25.910Z,27.14
2022-08-23T14:53:30.440Z,26.97
2022-08-23T14:57:31.921Z,28.06
2022-08-23T15:01:33.643Z,27.99
2022-08-23T15:05:36.267Z,27.29
2022-08-23T15:09:38.378Z,29.29
2022-08-23T15:13:55.545Z,29.12
2022-08-23T15:18:00.418Z,29.43
2022-08-23T15:22:06.549Z,27.13
2022-08-23T15:26:22.493Z,27.25
2022-08-23T15:30:24.588Z,27.22
2022-08-23T15:34:26.043Z,26.75
2022-08-23T15:38:28.163Z,26.34
2022-08-23T15:42:29.661Z,26.66
2022-08-23T15:46:31.452Z,27.13
2022-08-23T15:50:34.818Z,26.94
2022-08-23T15:54:36.470Z,26.48
2022-08-23T15:58:38.728Z,26.02
2022-08-23T16:03:04.472Z,26.29
2022-08-23T16:07:05.135Z,26.35
2022-08-23T16:11:12.100Z,26.40
2022-08-23T16:15:13.663Z,25.86
2022-08-23T16:19:16.639Z,26.11
2022-08-23T16:23:18.363Z,25.65
2022-08-23T16:27:19.916Z,26.31
2022-08-23T16:31:22.461Z,26.44
2022-08-23T16:35:40.025Z,27.29
2022-08-23T16:39:41.552Z,27.14
2022-08-23T16:43:43.527Z,27.54
2022-08-23T16:47:48.249Z,28.55
2022-08-23T16:51:52.973Z,28.41
2022-08-23T16:55:54.885Z,28.19
2022-08-23T16:59:56.366Z,28.62
2022-08-23T17:03:57.777Z,27.80
2022-08-23T17:07:59.396Z,27.90
2022-08-23T17:12:03.582Z,27.46
2022-08-23T17:16:05.420Z,25.04
2022-08-23T17:20:09.720Z,25.20
2022-08-23T17:24:11.197Z,25.51
2022-08-23T17:28:12.661Z,25.60
2022-08-23T17:32:14.131Z,25.84
2022-08-23T17:36:33.196Z,25.90
2022-08-23T17:40:36.718Z,25.76
2022-08-23T17:44:38.188Z,25.50
2022-08-23T17:48:39.674Z,24.52
2022-08-23T17:52:41.421Z,24.62
2022-08-23T17:56:49.985Z,24.35
2022-08-23T18:00:51.715Z,23.24
2022-08-23T18:04:53.667Z,23.45
2022-08-23T18:08:55.640Z,23.61
2022-08-23T18:12:58.536Z,22.98
2022-08-23T18:17:00.550Z,23.24
2022-08-23T18:21:07.594Z,22.89
2022-08-23T18:25:11.061Z,22.99
2022-08-23T18:29:14.344Z,22.79
2022-08-23T18:33:17.808Z,22.52
2022-08-23T18:37:21.737Z,22.27
2022-08-23T18:41:23.783Z,22.03
2022-08-23T18:45:25.281Z,21.93
2022-08-23T18:49:26.794Z,21.66
2022-08-23T18:53:28.569Z,21.60
2022-08-23T18:57:30.046Z,21.72
2022-08-23T19:01:39.180Z,21.64
2022-08-23T19:05:42.285Z,21.56
2022-08-23T19:09:44.029Z,21.44
2022-08-23T19:13:45.879Z,21.43
2022-08-23T19:17:47.800Z,21.40
2022-08-23T19:21:50.271Z,21.39
2022-08-23T19:25:52.105Z,21.36
2022-08-23T19:29:53.815Z,21.37
2022-08-23T19:33:56.556Z,21.34
2022-08-23T19:37:58.770Z,21.02
2022-08-23T19:42:00.409Z,20.83
2022-08-23T19:46:15.739Z,21.01
2022-08-23T19:50:20.567Z,20.65
2022-08-23T19:54:27.177Z,20.94
2022-08-23T19:58:28.697Z,20.91
2022-08-23T20:02:30.175Z,20.76
2022-08-23T20:06:31.918Z,20.61
2022-08-23T20:10:33.382Z,19.84
2022-08-23T20:14:35.065Z,20.15
2022-08-23T20:18:36.507Z,20.16
2022-08-23T20:22:56.407Z,19.35
2022-08-23T20:26:58.132Z,19.87
2022-08-23T20:31:07.029Z,19.99
2022-08-23T20:35:10.217Z,19.98
2022-08-23T20:39:11.695Z,19.85
2022-08-23T20:43:13.214Z,19.81
2022-08-23T20:47:14.814Z,19.79
2022-08-23T20:51:16.330Z,19.58
2022-08-23T20:55:17.815Z,19.85
2022-08-23T20:59:20.131Z,19.96
2022-08-23T21:03:21.856Z,20.03
2022-08-23T21:07:23.772Z,20.02
2022-08-23T21:11:28.984Z,19.99
2022-08-23T21:15:31.268Z,19.90
2022-08-23T21:19:32.730Z,19.84
2022-08-23T21:23:35.213Z,19.75
2022-08-23T21:27:36.706Z,19.72
2022-08-23T21:31:39.108Z,19.95
2022-08-23T21:35:40.683Z,20.01
2022-08-23T21:39:42.124Z,19.94
2022-08-23T21:43:43.571Z,19.75
2022-08-23T21:47:45.987Z,19.65
2022-08-23T21:51:49.117Z,19.63
2022-08-23T21:55:50.771Z,19.16
2022-08-23T21:59:53.125Z,18.93
2022-08-23T22:03:57.003Z,19.21
2022-08-23T22:07:59.752Z,19.39
2022-08-23T22:12:01.302Z,19.37
2022-08-23T22:16:03.662Z,19.21
2022-08-23T22:20:07.342Z,19.21
2022-08-23T22:24:10.702Z,19.20
2022-08-23T22:28:12.167Z,19.14
2022-08-23T22:32:13.671Z,19.16
2022-08-23T22:36:18.890Z,19.08
2022-08-23T22:40:20.507Z,19.02
2022-08-23T22:44:22.039Z,18.90
2022-08-23T22:48:24.720Z,18.49
2022-08-23T22:52:26.240Z,18.24
2022-08-23T22:56:30.973Z,18.48
2022-08-23T23:00:32.763Z,18.60
2022-08-23T23:04:34.692Z,18.68
2022-08-23T23:08:36.924Z,18.47
2022-08-23T23:12:38.484Z,18.24
2022-08-23T23:16:40.957Z,18.19
2022-08-23T23:20:42.503Z,17.92
2022-08-23T23:24:44.028Z,18.26
2022-08-23T23:28:45.462Z,18.32
2022-08-23T23:32:46.978Z,18.22
2022-08-23T23:36:48.493Z,18.34
2022-08-23T23:40:50.063Z,18.44
2022-08-23T23:44:51.645Z,17.95
2022-08-23T23:48:53.099Z,17.94
2022-08-23T23:52:54.747Z,18.03
2022-08-23T23:56:56.166Z,18.18
